Time;durP1;ratioP1;P1;durP2;ratioP2;P2;SDS_P1;SDS_P2;PMS_P1;PMS_P2;Temp;Humidity;BMP_temperature;BMP_pressure;BME280_temperature;BME280_humidity;BME280_pressure;Samples;Min_cycle;Max_cycle;Signal;HPM_P1;HPM_P2
2024/01/24 00:00:55;;;;;;;1.25;0.60;;;;;;;23.00;40.05;102066.75;4215428;28;20419;-48
2024/01/24 00:02:57;;;;;;;1.23;0.55;;;;;;;23.02;39.98;102064.84;4215954;28;20048;-45
2024/01/24 00:04:58;;;;;;;0.65;0.40;;;;;;;23.04;40.06;102066.44;4215867;28;20040;-47
2024/01/24 00:07:00;;;;;;;0.70;0.40;;;;;;;23.05;40.21;102081.59;4215852;28;20052;-44
2024/01/24 00:09:02;;;;;;;0.70;0.47;;;;;;;23.05;39.84;102070.84;4215787;28;20109;-49
2024/01/24 00:11:03;;;;;;;;;;;;;;;23.03;40.15;102061.19;4216389;28;20044;-48
2024/01/24 00:13:05;;;;;;;0.60;0.40;;;;;;;23.03;40.55;102066.56;4215751;28;19927;-47
2024/01/24 00:15:07;;;;;;;0.85;0.30;;;;;;;23.01;40.27;102068.47;4215184;28;20122;-47
2024/01/24 00:17:09;;;;;;;0.95;0.47;;;;;;;23.02;40.54;102060.31;4215484;28;20054;-46
2024/01/24 00:19:11;;;;;;;0.73;0.50;;;;;;;23.01;40.53;102068.47;4215487;28;20533;-46
2024/01/24 00:21:12;;;;;;;0.68;0.32;;;;;;;23.01;40.30;102063.09;4215641;28;20044;-47
2024/01/24 00:23:14;;;;;;;0.98;0.47;;;;;;;23.02;40.45;102060.31;4215663;28;20044;-46
2024/01/24 00:25:16;;;;;;;0.52;0.28;;;;;;;23.04;40.32;102062.88;4221961;28;20457;-48
2024/01/24 00:27:19;;;;;;;;;;;;;;;23.01;40.24;102061.25;4232572;28;20039;-47
2024/01/24 00:29:20;;;;;;;0.63;0.40;;;;;;;23.01;39.83;102058.59;4232061;28;19924;-51
2024/01/24 00:31:22;;;;;;;0.77;0.38;;;;;;;23.04;40.02;102066.44;4232054;28;20043;-50
2024/01/24 00:33:25;;;;;;;0.77;0.30;;;;;;;23.08;39.62;102073.31;4232005;28;20050;-49
2024/01/24 00:35:27;;;;;;;0.35;0.20;;;;;;;23.11;39.49;102070.44;4220556;28;20048;-50
2024/01/24 00:37:28;;;;;;;0.88;0.20;;;;;;;23.11;40.17;102059.69;4215305;28;20229;-49
2024/01/24 00:39:30;;;;;;;0.85;0.30;;;;;;;23.11;40.17;102072.25;4215152;28;20574;-51
2024/01/24 00:41:32;;;;;;;1.55;0.60;;;;;;;23.11;40.29;102069.56;4215361;28;20133;-45
2024/01/24 00:43:33;;;;;;;0.93;0.40;;;;;;;23.09;40.23;102072.34;4214791;28;20044;-47
2024/01/24 00:45:35;;;;;;;0.68;0.30;;;;;;;23.08;40.33;102062.56;4215209;28;20474;-45
2024/01/24 00:47:37;;;;;;;;;;;;;;;23.08;40.50;102077.84;4215624;28;20040;-47
2024/01/24 00:49:38;;;;;;;0.63;0.30;;;;;;;23.05;40.24;102086.06;4214785;28;20011;-47
2024/01/24 00:51:40;;;;;;;1.20;0.30;;;;;;;23.08;40.43;102081.34;4215041;28;20460;-49
2024/01/24 00:53:50;;;;;;;1.02;0.40;;;;;;;23.04;40.40;102087.91;4214941;28;20062;-47
2024/01/24 00:55:52;;;;;;;1.00;0.30;;;;;;;23.08;40.30;102085.88;4223340;28;20050;-47
2024/01/24 00:57:54;;;;;;;0.98;0.30;;;;;;;23.06;39.85;102069.91;4231329;28;20104;-50
2024/01/24 00:59:57;;;;;;;0.85;0.30;;;;;;;23.11;39.88;102086.53;4231741;28;20052;-50
2024/01/24 01:01:59;;;;;;;0.98;0.40;;;;;;;23.11;39.91;102080.28;4231739;28;20064;-50
2024/01/24 01:04:00;;;;;;;0.55;0.28;;;;;;;23.12;39.78;102082.91;4231529;28;20082;-49
2024/01/24 01:06:04;;;;;;;0.47;0.20;;;;;;;23.15;40.13;102081.81;4231773;28;20117;-46
2024/01/24 01:08:06;;;;;;;0.95;0.20;;;;;;;23.14;40.14;102080.94;4231743;28;20054;-49
2024/01/24 01:10:10;;;;;;;0.65;0.20;;;;;;;23.14;40.05;102080.09;4231848;28;20079;-50
2024/01/24 01:12:12;;;;;;;1.75;0.30;;;;;;;23.13;40.12;102089.97;4231028;28;20454;-47
2024/01/24 01:14:13;;;;;;;0.93;0.28;;;;;;;23.12;39.98;102098.13;4231798;28;20494;-47
2024/01/24 01:16:15;;;;;;;0.85;0.20;;;;;;;23.11;40.30;102091.03;4231563;28;20096;-47
2024/01/24 01:18:17;;;;;;;0.20;0.20;;;;;;;23.09;40.75;102083.09;4231455;28;20048;-46
2024/01/24 01:20:21;;;;;;;0.30;0.20;;;;;;;23.12;40.23;102079.34;4231310;28;20108;-48
2024/01/24 01:22:22;;;;;;;0.40;0.20;;;;;;;23.12;40.17;102079.34;4231214;28;20126;-48
2024/01/24 01:24:24;;;;;;;0.88;0.30;;;;;;;23.10;40.53;102071.41;4231592;28;20043;-49
2024/01/24 01:26:26;;;;;;;0.20;0.10;;;;;;;23.12;40.35;102082.91;4230958;27;20795;-48
2024/01/24 01:28:27;;;;;;;0.20;0.15;;;;;;;23.14;40.09;102078.25;4231314;28;20047;-50
2024/01/24 01:30:29;;;;;;;0.30;0.20;;;;;;;23.14;40.42;102059.47;4231402;28;20502;-50
2024/01/24 01:32:31;;;;;;;0.17;0.10;;;;;;;23.17;40.19;102069.16;4230009;28;20500;-48
2024/01/24 01:34:32;;;;;;;;;;;;;;;23.17;40.02;102063.81;4227648;28;20047;-48
2024/01/24 01:36:34;;;;;;;0.60;0.20;;;;;;;23.16;40.36;102058.53;4214388;28;19927;-47
2024/01/24 01:38:36;;;;;;;0.75;0.15;;;;;;;23.16;40.41;102075.50;4214312;28;20052;-48
2024/01/24 01:40:38;;;;;;;0.52;0.10;;;;;;;23.17;40.50;102071.00;4213983;28;20048;-47
2024/01/24 01:42:46;;;;;;;0.40;0.15;;;;;;;23.17;40.27;102058.44;4214237;28;20136;-48
2024/01/24 01:44:48;;;;;;;0.40;0.10;;;;;;;23.19;40.38;102082.50;4213640;28;20048;-48
2024/01/24 01:46:53;;;;;;;;;;;;;;;23.21;40.44;102088.63;4214786;28;20580;-46
2024/01/24 01:48:57;;;;;;;1.27;0.20;;;;;;;23.19;40.37;102087.88;4214236;28;20289;-48
2024/01/24 01:51:00;;;;;;;0.43;0.20;;;;;;;23.19;40.21;102093.25;4214206;28;20052;-50
2024/01/24 01:53:03;;;;;;;0.20;0.10;;;;;;;23.17;40.28;102095.16;4214331;28;20511;-49
2024/01/24 01:55:07;;;;;;;0.55;0.10;;;;;;;23.21;39.90;102089.50;4216260;28;20048;-48
2024/01/24 01:57:11;;;;;;;0.68;0.20;;;;;;;23.22;40.25;102080.47;4230674;28;20075;-46
2024/01/24 01:59:14;;;;;;;0.30;0.13;;;;;;;23.24;39.91;102080.38;4230674;28;20058;-47
2024/01/24 02:01:16;;;;;;;0.10;0.00;;;;;;;23.25;40.28;102077.56;4231023;28;20055;-46
2024/01/24 02:03:18;;;;;;;0.40;0.10;;;;;;;23.26;40.18;102081.97;4230721;28;20063;-44
2024/01/24 02:05:20;;;;;;;0.77;0.20;;;;;;;23.26;40.36;102083.81;4229550;28;20439;-45
2024/01/24 02:07:22;;;;;;;;;;;;;;;23.24;40.03;102073.16;4231208;28;20101;-46
2024/01/24 02:09:24;;;;;;;1.40;0.13;;;;;;;23.21;40.38;102077.88;4230945;28;19954;-46
2024/01/24 02:11:26;;;;;;;0.43;0.13;;;;;;;23.20;40.40;102063.59;4230346;28;20039;-49
2024/01/24 02:13:31;;;;;;;0.20;0.10;;;;;;;23.19;40.77;102072.63;4230668;28;20550;-50
2024/01/24 02:15:33;;;;;;;0.65;0.10;;;;;;;23.19;40.28;102078.00;4230779;28;20082;-46
2024/01/24 02:17:35;;;;;;;0.75;0.28;;;;;;;23.19;40.38;102071.78;4230719;28;20124;-49
2024/01/24 02:19:37;;;;;;;0.52;0.10;;;;;;;23.20;40.61;102060.09;4230566;28;20044;-50
2024/01/24 02:21:38;;;;;;;0.22;0.10;;;;;;;23.24;40.68;102075.84;4230635;28;20039;-45
2024/01/24 02:23:42;;;;;;;0.63;0.10;;;;;;;23.26;40.24;102065.88;4230458;28;20126;-45
2024/01/24 02:25:44;;;;;;;0.47;0.10;;;;;;;23.25;40.42;102061.47;4229967;28;20044;-47
2024/01/24 02:27:45;;;;;;;0.75;0.17;;;;;;;23.29;40.35;102080.91;4230349;28;20048;-46
2024/01/24 02:29:48;;;;;;;0.20;0.10;;;;;;;23.28;40.42;102085.44;4230426;28;20044;-46
2024/01/24 02:31:50;;;;;;;0.20;0.10;;;;;;;23.27;40.49;102081.03;4230703;28;20085;-47
2024/01/24 02:33:51;;;;;;;0.15;0.00;;;;;;;23.28;40.24;102071.13;4230289;28;20096;-48
2024/01/24 02:35:53;;;;;;;0.08;0.00;;;;;;;23.26;40.78;102065.03;4215299;28;20048;-46
2024/01/24 02:37:55;;;;;;;0.10;0.00;;;;;;;23.27;40.25;102069.44;4213432;28;20048;-47
2024/01/24 02:39:56;;;;;;;0.20;0.10;;;;;;;23.24;40.42;102069.63;4213292;28;20044;-46
2024/01/24 02:41:58;;;;;;;0.30;0.05;;;;;;;23.25;40.79;102066.84;4213593;28;20044;-47
2024/01/24 02:44:00;;;;;;;0.03;0.03;;;;;;;23.29;40.29;102083.59;4212277;28;20079;-47
2024/01/24 02:46:02;;;;;;;0.65;0.10;;;;;;;23.28;40.21;102068.44;4213572;28;20518;-47
2024/01/24 02:48:04;;;;;;;0.52;0.10;;;;;;;23.28;40.55;102066.63;4213463;28;20511;-47
2024/01/24 02:50:07;;;;;;;0.40;0.03;;;;;;;23.27;40.33;102062.22;4213583;28;20776;-47
2024/01/24 02:52:11;;;;;;;0.30;0.10;;;;;;;23.28;40.41;102068.44;4213348;28;20415;-48
2024/01/24 02:54:13;;;;;;;0.50;0.10;;;;;;;23.28;40.41;102082.75;4213188;28;20048;-48
2024/01/24 02:56:14;;;;;;;0.10;0.05;;;;;;;23.32;40.21;102072.66;4226640;28;20096;-48
2024/01/24 02:58:16;;;;;;;0.22;0.08;;;;;;;23.31;40.16;102072.75;4233705;28;20070;-47
2024/01/24 03:00:18;;;;;;;0.38;0.08;;;;;;;23.32;40.34;102066.41;4233441;28;20087;-49
2024/01/24 03:02:19;;;;;;;;;;;;;;;23.31;40.10;102056.63;4234209;28;20063;-48
2024/01/24 03:04:21;;;;;;;0.40;0.00;;;;;;;23.28;40.48;102066.63;4232493;28;19923;-46
2024/01/24 03:06:23;;;;;;;0.70;0.03;;;;;;;23.31;40.23;102070.94;4233718;28;20047;-45
2024/01/24 03:08:24;;;;;;;;;;;;;;;23.28;40.64;102073.81;4233727;28;20052;-47
2024/01/24 03:10:26;;;;;;;0.03;0.00;;;;;;;23.23;40.92;102074.16;4233719;28;20118;-48
2024/01/24 03:12:28;;;;;;;0.22;0.10;;;;;;;23.24;40.42;102073.16;4233609;28;20044;-49
2024/01/24 03:14:30;;;;;;;0.00;0.00;;;;;;;23.25;40.57;102082.09;4233414;28;20048;-48
2024/01/24 03:16:31;;;;;;;0.20;0.00;;;;;;;23.26;40.28;102083.81;4233415;28;20142;-45
2024/01/24 03:18:35;;;;;;;;;;;;;;;23.25;40.24;102093.69;4233915;28;20126;-45
2024/01/24 03:20:37;;;;;;;0.30;0.10;;;;;;;23.27;40.25;102091.75;4233460;28;19926;-48
2024/01/24 03:22:42;;;;;;;1.40;0.10;;;;;;;23.29;40.33;102070.16;4232960;28;20043;-49
2024/01/24 03:24:43;;;;;;;0.30;0.00;;;;;;;23.34;40.32;102062.66;4233494;28;20074;-48
2024/01/24 03:26:45;;;;;;;0.20;0.10;;;;;;;23.35;39.97;102076.94;4233221;28;20040;-46
2024/01/24 03:28:47;;;;;;;0.20;0.00;;;;;;;23.37;40.10;102065.13;4233344;27;20051;-47
2024/01/24 03:30:49;;;;;;;0.43;0.10;;;;;;;23.33;40.13;102068.13;4233088;28;20092;-45
2024/01/24 03:32:50;;;;;;;;;;;;;;;23.35;40.06;102076.94;4233746;28;20048;-46
2024/01/24 03:34:53;;;;;;;0.00;0.00;;;;;;;23.33;40.49;102079.75;4226540;28;20010;-45
2024/01/24 03:36:55;;;;;;;0.75;0.05;;;;;;;23.31;40.51;102065.56;4215766;28;20048;-45
2024/01/24 03:38:56;;;;;;;0.20;0.10;;;;;;;23.32;40.78;102069.09;4214982;28;20499;-46
2024/01/24 03:40:58;;;;;;;0.00;0.00;;;;;;;23.31;40.60;102057.50;4216404;28;20061;-45
2024/01/24 03:43:00;;;;;;;0.25;0.10;;;;;;;23.31;40.51;102070.94;4216203;28;20051;-46
2024/01/24 03:45:02;;;;;;;0.35;0.05;;;;;;;23.32;40.28;102059.22;4216159;28;20125;-47
2024/01/24 03:47:04;;;;;;;0.82;0.10;;;;;;;23.33;40.45;102050.22;4216087;28;20055;-47
2024/01/24 03:49:06;;;;;;;0.60;0.10;;;;;;;23.36;40.01;102050.00;4216092;28;20044;-46
2024/01/24 03:51:08;;;;;;;;;;;;;;;23.38;39.94;102072.22;4216153;28;20047;-48
2024/01/24 03:53:10;;;;;;;0.10;0.03;;;;;;;23.41;40.11;102066.63;4215975;28;19927;-46
2024/01/24 03:55:11;;;;;;;0.15;0.10;;;;;;;23.41;40.34;102066.63;4218886;28;20043;-49
2024/01/24 03:57:13;;;;;;;0.13;0.10;;;;;;;23.45;40.04;102069.97;4232950;28;20546;-46
2024/01/24 03:59:15;;;;;;;;;;;;;;;23.41;40.40;102060.41;4232602;28;20067;-46
2024/01/24 04:01:16;;;;;;;0.10;0.00;;;;;;;23.38;40.43;102061.50;4231730;28;19920;-46
2024/01/24 04:03:18;;;;;;;0.50;0.10;;;;;;;23.39;40.17;102062.34;4231943;28;20058;-45
2024/01/24 04:05:20;;;;;;;0.22;0.10;;;;;;;23.40;40.46;102058.69;4231764;28;20047;-48
2024/01/24 04:07:22;;;;;;;0.30;0.00;;;;;;;23.39;40.05;102052.47;4231294;28;20430;-49
2024/01/24 04:09:24;;;;;;;0.10;0.00;;;;;;;23.41;40.18;102065.78;4231834;28;20112;-46
2024/01/24 04:11:26;;;;;;;0.20;0.00;;;;;;;23.41;39.98;102076.53;4231656;28;20131;-50
2024/01/24 04:13:27;;;;;;;;;;;;;;;23.41;40.04;102060.41;4232161;28;20043;-49
2024/01/24 04:15:29;;;;;;;0.17;0.03;;;;;;;23.41;40.10;102060.41;4231550;28;20338;-46
2024/01/24 04:17:30;;;;;;;0.10;0.10;;;;;;;23.44;39.91;102069.13;4231867;28;20047;-47
2024/01/24 04:19:32;;;;;;;0.40;0.10;;;;;;;23.45;39.96;102062.78;4231433;28;20047;-46
2024/01/24 04:21:41;;;;;;;0.05;0.00;;;;;;;23.39;40.16;102059.66;4231279;28;20100;-47
2024/01/24 04:23:43;;;;;;;0.15;0.00;;;;;;;23.47;40.25;102078.78;4231493;28;20057;-45
2024/01/24 04:25:45;;;;;;;0.47;0.10;;;;;;;23.49;40.08;102076.00;4231406;28;20043;-46
2024/01/24 04:27:46;;;;;;;0.00;0.00;;;;;;;23.47;40.26;102076.09;4231322;28;20044;-46
2024/01/24 04:29:48;;;;;;;0.70;0.10;;;;;;;23.48;40.09;102077.81;4231632;28;20078;-49
2024/01/24 04:31:49;;;;;;;0.30;0.00;;;;;;;23.48;40.23;102085.88;4231267;28;20043;-48
2024/01/24 04:33:52;;;;;;;0.57;0.03;;;;;;;23.45;40.12;102084.28;4231423;28;20056;-49
2024/01/24 04:35:57;;;;;;;0.38;0.00;;;;;;;23.49;40.38;102102.84;4214370;28;20487;-46
2024/01/24 04:37:58;;;;;;;0.28;0.10;;;;;;;23.51;40.54;102098.22;4214681;28;20062;-47
2024/01/24 04:40:00;;;;;;;0.13;0.00;;;;;;;23.48;40.20;102096.63;4214540;28;20553;-49
2024/01/24 04:42:03;;;;;;;;;;;;;;;23.48;40.18;102111.88;4215097;28;20055;-50
2024/01/24 04:44:16;;;;;;;0.15;0.10;;;;;;;23.47;39.79;102115.53;4214423;28;19920;-48
2024/01/24 04:46:19;;;;;;;0.10;0.10;;;;;;;23.48;40.25;102118.09;4214329;28;20499;-48
2024/01/24 04:48:21;;;;;;;0.85;0.00;;;;;;;23.51;40.24;102125.09;4214248;28;20101;-45
2024/01/24 04:50:23;;;;;;;0.20;0.10;;;;;;;23.55;39.85;102127.47;4213920;28;20058;-48
2024/01/24 04:52:25;;;;;;;0.30;0.00;;;;;;;23.56;40.27;102131.88;4214272;28;20047;-46
2024/01/24 04:54:27;;;;;;;0.10;0.00;;;;;;;23.55;39.90;102135.53;4214308;28;20075;-45
2024/01/24 04:56:29;;;;;;;0.00;0.00;;;;;;;23.54;40.15;102141.00;4227614;28;20043;-47
2024/01/24 04:58:30;;;;;;;0.30;0.10;;;;;;;23.55;40.04;102138.19;4230844;28;20040;-45
2024/01/24 05:00:32;;;;;;;1.08;0.03;;;;;;;23.53;40.27;102144.66;4192969;28;1099041;-47
2024/01/24 05:02:33;;;;;;;;;;;;;;;23.53;40.34;102141.97;4232253;28;20469;-44
2024/01/24 05:04:36;;;;;;;0.03;0.00;;;;;;;23.52;40.38;102137.56;4231432;28;19919;-45
2024/01/24 05:06:38;;;;;;;0.32;0.00;;;;;;;23.54;40.48;102143.69;4231588;28;20039;-47
2024/01/24 05:08:40;;;;;;;;;;;;;;;23.54;40.15;102141.00;4232085;28;20050;-44
2024/01/24 05:10:41;;;;;;;0.22;0.08;;;;;;;23.52;40.37;102159.88;4230700;28;20333;-46
2024/01/24 05:12:43;;;;;;;0.10;0.03;;;;;;;23.56;39.89;102153.34;4231731;28;20044;-46
2024/01/24 05:14:44;;;;;;;;;;;;;;;23.54;40.22;102154.44;4230677;28;20047;-45
2024/01/24 05:16:47;;;;;;;0.35;0.00;;;;;;;23.53;40.27;102156.25;4230355;28;20402;-46
2024/01/24 05:18:50;;;;;;;0.10;0.05;;;;;;;23.57;40.21;102170.31;4230139;28;20059;-46
2024/01/24 05:20:52;;;;;;;;;;;;;;;23.60;40.02;102172.81;4231860;28;20530;-50
2024/01/24 05:22:53;;;;;;;0.20;0.10;;;;;;;23.59;40.20;102158.50;4231359;28;20006;-49
2024/01/24 05:24:55;;;;;;;;;;;;;;;23.58;40.27;102159.47;4231660;28;20059;-48
2024/01/24 05:26:57;;;;;;;0.05;0.00;;;;;;;23.57;40.29;102173.88;4230426;28;19919;-49
2024/01/24 05:28:58;;;;;;;0.00;0.00;;;;;;;23.58;40.25;102172.03;4231533;28;20043;-49
2024/01/24 05:31:00;;;;;;;0.00;0.00;;;;;;;23.60;40.67;102179.03;4231365;28;20040;-47
2024/01/24 05:33:02;;;;;;;0.00;0.00;;;;;;;23.61;40.24;102180.75;4230974;28;20160;-47
2024/01/24 05:35:03;;;;;;;;;;;;;;;23.62;40.21;102203.09;4223410;28;20134;-49
2024/01/24 05:37:05;;;;;;;0.70;0.10;;;;;;;23.60;40.08;102196.97;4214461;28;19937;-49
2024/01/24 05:39:07;;;;;;;;;;;;;;;23.59;40.64;102201.47;4214659;28;20415;-47
2024/01/24 05:41:09;;;;;;;0.20;0.10;;;;;;;23.60;40.17;102210.41;4214487;28;20280;-46
2024/01/24 05:43:12;;;;;;;1.08;0.00;;;;;;;23.62;40.01;102219.19;4214298;28;20098;-45
2024/01/24 05:45:14;;;;;;;0.65;0.10;;;;;;;23.65;39.85;102235.13;4213938;28;20044;-49
2024/01/24 05:47:16;;;;;;;0.30;0.10;;;;;;;23.68;40.11;102255.53;4213686;28;20047;-45
2024/01/24 05:49:18;;;;;;;0.10;0.00;;;;;;;23.67;40.27;102262.75;4214087;28;20048;-48
2024/01/24 05:51:20;;;;;;;0.00;0.00;;;;;;;23.68;39.86;102263.59;4214118;28;20051;-46
2024/01/24 05:53:22;;;;;;;0.70;0.10;;;;;;;23.68;40.09;102258.22;4214113;28;20048;-49
2024/01/24 05:55:23;;;;;;;1.05;0.10;;;;;;;23.68;40.40;102261.78;4218687;28;20036;-47
2024/01/24 05:57:25;;;;;;;0.75;0.20;;;;;;;23.69;40.46;102276.91;4230988;28;20043;-48
2024/01/24 05:59:27;;;;;;;0.10;0.08;;;;;;;23.71;40.22;102277.69;4230769;28;20057;-50
2024/01/24 06:01:28;;;;;;;0.32;0.00;;;;;;;23.69;40.20;102266.19;4230964;28;20047;-47
2024/01/24 06:03:30;;;;;;;0.88;0.10;;;;;;;23.69;40.38;102289.50;4230369;28;20526;-46
2024/01/24 06:05:32;;;;;;;;;;;;;;;23.66;40.49;102287.00;4231075;28;20061;-47
2024/01/24 06:07:34;;;;;;;;;;;;;;;23.63;40.50;102290.75;4231153;28;20370;-48
2024/01/24 06:09:36;;;;;;;0.17;0.10;;;;;;;23.65;40.34;102270.03;4230815;28;20358;-48
2024/01/24 06:11:38;;;;;;;;;;;;;;;23.66;40.88;102287.88;4231191;28;20100;-50
2024/01/24 06:13:41;;;;;;;0.32;0.10;;;;;;;23.66;40.35;102298.63;4230702;28;19965;-47
2024/01/24 06:15:42;;;;;;;0.30;0.10;;;;;;;23.72;40.37;102298.22;4230627;28;20094;-49
2024/01/24 06:17:44;;;;;;;0.10;0.00;;;;;;;23.72;40.37;102300.03;4230199;28;20047;-47
2024/01/24 06:19:45;;;;;;;0.20;0.10;;;;;;;23.72;40.64;102287.47;4230584;28;20476;-46
2024/01/24 06:21:52;;;;;;;0.43;0.13;;;;;;;23.73;40.59;102307.13;4230575;28;20149;-47
2024/01/24 06:23:54;;;;;;;0.57;0.10;;;;;;;23.74;40.79;102308.84;4230764;28;20044;-50
2024/01/24 06:25:55;;;;;;;0.05;0.00;;;;;;;23.76;40.75;102313.16;4230446;28;20044;-47
2024/01/24 06:27:57;;;;;;;0.00;0.00;;;;;;;23.73;40.82;102313.38;4230581;28;20047;-49
2024/01/24 06:29:59;;;;;;;;;;;;;;;23.75;40.66;102305.22;4229582;28;20123;-46
2024/01/24 06:32:21;;;;;;;0.93;0.10;;;;;;;23.69;40.55;102311.84;4229193;28;19919;-50
2024/01/24 06:34:22;;;;;;;0.20;0.10;;;;;;;23.66;40.71;102312.06;4227834;28;20442;-44
2024/01/24 06:36:24;;;;;;;1.05;0.10;;;;;;;23.68;40.27;102318.19;4213595;28;20044;-47
2024/01/24 06:38:26;;;;;;;0.63;0.13;;;;;;;23.71;40.34;102323.34;4213759;28;20044;-48
2024/01/24 06:40:28;;;;;;;;;;;;;;;23.70;40.38;102328.84;4213774;28;20079;-48
2024/01/24 06:42:30;;;;;;;0.10;0.10;;;;;;;23.66;40.27;102322.81;4213804;28;19965;-46
2024/01/24 06:44:31;;;;;;;1.40;0.17;;;;;;;23.72;40.32;102326.88;4213681;28;20063;-45
2024/01/24 06:46:41;;;;;;;0.55;0.13;;;;;;;23.71;40.80;102334.09;4213291;28;20048;-50
2024/01/24 06:48:43;;;;;;;0.40;0.20;;;;;;;23.70;40.85;102343.13;4213655;28;20052;-48
2024/01/24 06:50:45;;;;;;;1.58;0.17;;;;;;;23.68;40.69;102344.19;4213516;28;20132;-47
2024/01/24 06:52:46;;;;;;;0.73;0.20;;;;;;;23.70;41.00;102356.56;4213217;28;20048;-48
2024/01/24 06:54:49;;;;;;;0.30;0.10;;;;;;;23.72;40.71;102345.69;4213662;28;20077;-49
2024/01/24 06:56:50;;;;;;;0.82;0.20;;;;;;;23.74;40.71;102350.03;4213487;28;20060;-50
2024/01/24 06:58:52;;;;;;;0.68;0.20;;;;;;;23.72;40.76;102364.50;4213176;28;20040;-47
2024/01/24 07:00:55;;;;;;;0.38;0.20;;;;;;;23.71;40.70;102360.13;4213267;28;20130;-51
2024/01/24 07:02:57;;;;;;;0.90;0.20;;;;;;;23.70;40.97;102356.56;4213296;28;20048;-49
2024/01/24 07:04:59;;;;;;;0.65;0.20;;;;;;;23.69;40.81;102360.19;4213310;28;20044;-49
2024/01/24 07:07:01;;;;;;;1.33;0.30;;;;;;;23.67;40.89;102359.44;4213504;28;20044;-50
2024/01/24 07:09:03;;;;;;;0.55;0.20;;;;;;;23.69;40.77;102364.72;4213543;28;20462;-48
2024/01/24 07:11:05;;;;;;;1.33;0.28;;;;;;;23.65;40.61;102358.69;4213455;28;20040;-45
2024/01/24 07:13:07;;;;;;;0.73;0.20;;;;;;;23.67;40.80;102356.75;4213403;28;20040;-49
2024/01/24 07:15:09;;;;;;;0.52;0.20;;;;;;;23.70;40.52;102359.22;4213351;28;20068;-47
2024/01/24 07:17:10;;;;;;;;;;;;;;;23.74;40.56;102362.59;4213531;28;20666;-46
2024/01/24 07:19:12;;;;;;;1.27;0.20;;;;;;;23.72;40.47;102362.69;4213220;28;20062;-50
2024/01/24 07:21:14;;;;;;;1.75;0.38;;;;;;;23.71;40.52;102370.84;4213291;28;20066;-45
2024/01/24 07:23:16;;;;;;;1.40;0.35;;;;;;;23.68;40.27;102368.38;4213439;28;20048;-50
2024/01/24 07:25:21;;;;;;;1.33;0.28;;;;;;;23.59;40.83;102359.09;4220019;28;20135;-46
2024/01/24 07:27:22;;;;;;;1.80;0.30;;;;;;;23.65;40.57;102371.25;4230241;28;20048;-49
2024/01/24 07:29:24;;;;;;;1.25;0.40;;;;;;;23.65;40.77;102372.09;4228468;28;20062;-49
2024/01/24 07:31:25;;;;;;;2.63;0.45;;;;;;;23.67;40.60;102367.50;4230374;28;20060;-48
2024/01/24 07:33:27;;;;;;;1.13;0.30;;;;;;;23.67;40.64;102367.50;4230131;28;20040;-50
2024/01/24 07:35:29;;;;;;;2.45;0.50;;;;;;;23.67;40.39;102370.19;4218161;28;20047;-47
2024/01/24 07:37:31;;;;;;;2.40;0.40;;;;;;;23.72;40.69;102372.56;4213257;28;20131;-47
2024/01/24 07:39:33;;;;;;;2.33;0.63;;;;;;;23.73;40.54;102379.66;4213015;28;20086;-49
2024/01/24 07:41:35;;;;;;;2.03;0.40;;;;;;;23.75;40.29;102392.03;4212171;28;20055;-48
2024/01/24 07:43:37;;;;;;;1.92;0.50;;;;;;;23.75;40.32;102393.88;4215817;28;20580;-47
2024/01/24 07:45:38;;;;;;;;;;;;;;;23.74;40.29;102402.88;4216659;28;20132;-48
2024/01/24 07:47:41;;;;;;;2.13;0.50;;;;;;;23.69;40.09;102396.94;4216304;28;19920;-46
2024/01/24 07:49:43;;;;;;;1.55;0.40;;;;;;;23.70;40.25;102402.22;4216180;28;20408;-49
2024/01/24 07:51:46;;;;;;;2.33;0.43;;;;;;;23.71;39.98;102403.94;4215916;28;20098;-51
2024/01/24 07:53:51;;;;;;;1.75;0.47;;;;;;;23.71;39.96;102405.78;4216097;28;20048;-47
2024/01/24 07:55:53;;;;;;;;;;;;;;;23.72;40.24;102421.78;4224018;28;20054;-49
2024/01/24 07:58:11;;;;;;;1.70;0.40;;;;;;;23.72;39.89;102426.28;4232452;28;19955;-47
2024/01/24 08:00:16;;;;;;;;;;;;;;;23.74;40.20;102421.69;4232923;28;20518;-48
2024/01/24 08:02:18;;;;;;;2.65;0.60;;;;;;;23.74;40.45;102427.06;4232902;28;20014;-50
2024/01/24 08:04:20;;;;;;;;;;;;;;;23.81;40.08;102435.59;4233309;28;20214;-48
2024/01/24 08:06:22;;;;;;;2.20;0.52;;;;;;;23.79;40.09;102432.97;4232442;28;19920;-47
2024/01/24 08:08:26;;;;;;;2.92;0.70;;;;;;;23.80;40.30;102442.78;4232707;28;20126;-50
2024/01/24 08:10:27;;;;;;;2.08;0.60;;;;;;;23.79;40.07;102448.25;4232679;28;20182;-49
2024/01/24 08:12:29;;;;;;;2.60;0.68;;;;;;;23.78;39.72;102450.09;4232536;28;20055;-47
2024/01/24 08:14:31;;;;;;;3.35;0.77;;;;;;;23.75;40.26;102437.69;4232250;28;20097;-48
2024/01/24 08:16:32;;;;;;;;;;;;;;;23.79;39.88;102432.97;4233096;28;20456;-49
2024/01/24 08:18:35;;;;;;;2.65;0.68;;;;;;;23.74;40.01;102432.44;4232491;28;19958;-49
2024/01/24 08:20:37;;;;;;;2.17;0.70;;;;;;;23.74;39.93;102424.38;4232395;28;20075;-50
2024/01/24 08:22:39;;;;;;;3.05;0.70;;;;;;;23.78;40.15;102442.03;4232376;28;20411;-50
2024/01/24 08:24:41;;;;;;;;;;;;;;;23.80;40.11;102458.91;4232896;28;20159;-46
2024/01/24 08:26:43;;;;;;;2.72;0.70;;;;;;;23.80;40.11;102464.28;4232083;28;19967;-51
2024/01/24 08:28:47;;;;;;;3.15;0.75;;;;;;;23.86;39.64;102468.41;4232406;28;20044;-48
2024/01/24 08:30:49;;;;;;;3.03;0.80;;;;;;;23.89;39.62;102471.75;4232383;28;20506;-49
2024/01/24 08:32:51;;;;;;;3.22;0.82;;;;;;;23.89;39.43;102452.94;4232284;28;20052;-50
2024/01/24 08:34:53;;;;;;;3.40;0.90;;;;;;;23.89;39.76;102466.38;4225341;27;20100;-49
2024/01/24 08:36:55;;;;;;;2.35;0.70;;;;;;;23.88;39.57;102475.41;4215199;28;20557;-48
2024/01/24 08:38:57;;;;;;;2.58;0.70;;;;;;;23.85;39.97;102474.72;4215168;28;20102;-48
2024/01/24 08:40:58;;;;;;;3.13;0.93;;;;;;;23.81;39.52;102466.00;4213825;28;20127;-48
2024/01/24 08:43:00;;;;;;;3.63;0.90;;;;;;;23.80;39.57;102469.66;4214924;28;20142;-49
2024/01/24 08:45:03;;;;;;;2.92;0.80;;;;;;;23.82;39.98;102480.31;4215206;28;20048;-49
2024/01/24 08:47:04;;;;;;;4.20;0.80;;;;;;;23.81;39.67;102470.53;4215206;28;20048;-48
2024/01/24 08:49:06;;;;;;;3.63;0.88;;;;;;;23.84;39.45;102471.19;4215072;28;20070;-49
2024/01/24 08:51:08;;;;;;;3.05;0.90;;;;;;;23.86;39.53;102474.63;4215276;28;20499;-48
2024/01/24 08:53:10;;;;;;;4.05;1.10;;;;;;;23.81;39.62;102476.75;4214376;28;20121;-49
2024/01/24 08:55:13;;;;;;;3.67;0.90;;;;;;;23.81;39.83;102471.38;4217532;28;20442;-51
2024/01/24 08:57:15;;;;;;;3.15;0.93;;;;;;;23.85;39.66;102467.53;4231578;28;20078;-51
2024/01/24 08:59:17;;;;;;;7.28;1.80;;;;;;;23.86;39.39;102469.25;4231836;28;20584;-51
2024/01/24 09:01:19;;;;;;;5.90;1.40;;;;;;;23.88;39.32;102475.41;4231637;28;20040;-48
2024/01/24 09:03:22;;;;;;;5.30;1.45;;;;;;;23.91;39.51;102483.28;4231932;28;20110;-48
2024/01/24 09:05:24;;;;;;;;;;;;;;;23.92;39.14;102490.38;4229959;27;20078;-51
2024/01/24 09:07:26;;;;;;;6.53;1.52;;;;;;;23.89;39.33;102479.81;4231772;28;20433;-48
2024/01/24 09:09:34;;;;;;;5.85;1.58;;;;;;;23.87;38.97;102499.69;4231565;27;20043;-47
2024/01/24 09:11:39;;;;;;;5.88;1.48;;;;;;;23.81;39.16;102500.94;4231142;28;20061;-47
2024/01/24 09:13:55;;;;;;;7.63;1.67;;;;;;;23.77;39.25;102494.03;4231381;28;20344;-50
2024/01/24 09:15:56;;;;;;;;;;;;;;;23.76;38.69;102514.66;4231893;28;20693;-48
2024/01/24 09:17:58;;;;;;;6.75;2.00;;;;;;;23.75;38.75;102517.44;4231532;28;20290;-48
2024/01/24 09:20:00;;;;;;;;;;;;;;;23.77;38.44;102515.53;4230590;28;20093;-51
2024/01/24 09:22:03;;;;;;;5.95;1.80;;;;;;;23.81;38.74;102532.31;4231496;28;19920;-48
2024/01/24 09:24:05;;;;;;;7.82;2.10;;;;;;;23.82;38.35;102534.06;4230318;28;20043;-48
2024/01/24 09:26:07;;;;;;;12.63;7.30;;;;;;;23.76;38.82;102549.56;4220208;28;20079;-48
2024/01/24 09:28:10;;;;;;;27.10;20.75;;;;;;;23.75;38.79;102550.53;4223110;28;20044;-51
2024/01/24 09:30:13;;;;;;;21.80;15.70;;;;;;;23.74;38.58;102548.84;4214405;28;20056;-48
2024/01/24 09:32:14;;;;;;;13.80;7.10;;;;;;;23.75;38.20;102555.91;4214547;28;20549;-50
2024/01/24 09:34:16;;;;;;;15.90;9.13;;;;;;;23.75;38.02;102547.84;4224532;28;20134;-49
2024/01/24 09:36:18;;;;;;;22.73;12.82;;;;;;;23.73;38.06;102547.09;4229239;28;20445;-46